Meteo Giornale » Osservazioni meteo Stati Uniti (USA) » Nashville

ore: 11:53 - Osservazioni Meteo Nashville
Lat. 36° 7' N Lon. 86° 41' W Alt. 182 metri s.l.m.

poco_nuvoloso

34 °C

Poco Nuvoloso

Temp. 24 Ore

23 °C

35 °C

Sud-Ovest

11.1 Km/h

Dew point 18 °C

Umidità 38 %

Visibilità  10 Km

Il sole sorge alle ore 06:18

Il sole tramonta alle ore 19:14

Data e Ora Cielo e Fenomeni T °C DP °C Um. % Pres. hPa Vis. km Vento km/h
Oggi h: 11:53 poco_nuvoloso Poco Nuvoloso 34 18 38 1020 10 SO 11.1
Oggi h: 10:53 poco_nuvoloso Poco Nuvoloso 34 19 41 1021 10 N 7.4
Oggi h: 09:53 sereno Sereno 32 21 52 1021 10 N 0
Oggi h: 08:53 sereno Sereno 30 21 58 1021 10 N 0
Oggi h: 07:53 sereno Sereno 26 21 73 1021 10 N 0
Oggi h: 06:53 sereno Sereno 23 21 88 1020 10 N 0
Oggi h: 05:53 sereno Sereno 23 21 88 1019 10 N 5.5
Oggi h: 04:53 sereno Sereno 24 21 83 1019 10 N 0
Oggi h: 03:53 sereno Sereno 24 21 83 1019 10 N 5.5
Oggi h: 02:53 sereno Sereno 24 21 83 1019 10 N 0
Oggi h: 01:53 sereno Sereno 25 21 78 1019 10 N 0
Oggi h: 00:53 sereno Sereno 26 21 73 1019 10 N 5.5
Ieri h: 23:53 sereno Sereno 26 21 73 1019 10 N 0
Ieri h: 22:53 sereno Sereno 27 21 69 1019 10 N 0
Ieri h: 21:53 sereno Sereno 28 21 65 1018 10 N 5.5
Ieri h: 20:53 sereno Sereno 29 19 54 1018 10 N 5.5
Ieri h: 19:53 poco_nuvoloso Poco Nuvoloso 29 19 54 1018 10 N 0
Ieri h: 18:53 poco_nuvoloso Poco Nuvoloso 33 18 41 1018 10 N 7.4
Ieri h: 17:53 nuvoloso Nuvoloso 34 18 38 1018 10 SE 7.4
Ieri h: 16:53 nuvoloso Nuvoloso 34 18 38 1018 10 E 9.3
Ieri h: 15:53 nuvoloso Nuvoloso 35 18 36 1019 10 N 7.4
Ieri h: 14:53 nuvoloso Nuvoloso 35 18 36 1019 10 S 9.3
Ieri h: 13:53 nuvoloso Nuvoloso 35 20 41 1019 10 S/SO 7.4
Ieri h: 12:53 nuvoloso Nuvoloso 34 21 46 1020 10 S/SO 11.1